Bosporus — V2QY — position and weather

sailwx.info

Track history (hours):
 
Tides and Currents Weather Stations Pressure Air Temp Water Temp Dewpoint Dewpoint Depression Visibility Wind Speed Wind Dir Waves Ship Positions

Bosporus

Last reported at 2018-Apr-24 19:39 UTC. Time now 2018-Apr-25 02:47 UTC.
Position N 43°16' E 007°01'.

Length 100 m; draft 4 m.

Type: Cargo ship. MMSI: 304010802.

Date/timePositionNaut miles runAvg speedWind from/ knotsBaromVisibWave heightAir tempDewpointWater temp
2018-Apr-24 19:39N 43°16' E 007°01'1 9.7
2018-Apr-24 19:31N 43°16' E 007°03'510.2
2018-Apr-24 19:00N 43°19' E 007°09'510.6
2018-Apr-24 18:30N 43°22' E 007°14'5011.1
2018-Apr-24 13:57N 43°53' E 008°10'511.0
2018-Apr-24 13:27N 43°57' E 008°15'610.9
2018-Apr-24 12:53N 44°02' E 008°20'511.2
2018-Apr-24 12:29N 44°06' E 008°24'511.4
2018-Apr-24 12:01N 44°10' E 008°28'510.7
2018-Apr-24 11:31N 44°15' E 008°31'4 8.0
2018-Apr-24 11:00N 44°19' E 008°30'0 0.1
2018-Apr-24 10:29N 44°19' E 008°30'0 0.0
2018-Apr-24 09:59N 44°19' E 008°30'0 0.0
2018-Apr-24 09:29N 44°19' E 008°30'0 0.0
2018-Apr-24 08:59N 44°19' E 008°30'0 0.0
2018-Apr-24 08:29N 44°19' E 008°30'0 0.0
2018-Apr-24 07:59N 44°19' E 008°30'0 0.0
2018-Apr-24 07:29N 44°19' E 008°30'0 0.0
2018-Apr-24 06:59N 44°19' E 008°30'0 0.0
2018-Apr-24 06:29N 44°19' E 008°30'0 0.0
2018-Apr-24 05:59N 44°19' E 008°30'0 0.0
2018-Apr-24 05:29N 44°19' E 008°30'0 0.0
2018-Apr-24 04:59N 44°19' E 008°30'0 0.0
2018-Apr-24 04:29N 44°19' E 008°30'0 0.8
2018-Apr-24 04:00N 44°19' E 008°30'1 1.7
2018-Apr-24 03:30N 44°18' E 008°30'0 0.1
2018-Apr-24 03:00N 44°18' E 008°30'0 0.0
2018-Apr-24 02:30N 44°18' E 008°30'0 0.0
2018-Apr-24 02:00N 44°18' E 008°30'0 0.0
2018-Apr-24 01:30N 44°18' E 008°30'0 0.0
2018-Apr-24 01:00N 44°18' E 008°30'0 0.0
2018-Apr-24 00:30N 44°18' E 008°30'0 0.0
2018-Apr-24 00:00N 44°18' E 008°30'0 0.0
2018-Apr-23 23:30N 44°18' E 008°30'0 0.0
2018-Apr-23 23:00N 44°18' E 008°30'0 0.0
2018-Apr-23 22:27N 44°18' E 008°30'0 0.0
2018-Apr-23 22:00N 44°18' E 008°30'0 0.0
2018-Apr-23 21:30N 44°18' E 008°30'0 0.0
2018-Apr-23 21:00N 44°18' E 008°30'0 0.0
2018-Apr-23 20:30N 44°18' E 008°30'0 0.0
2018-Apr-23 20:00N 44°18' E 008°30'0 0.0
2018-Apr-23 19:30N 44°18' E 008°30'0 0.0
2018-Apr-23 19:00N 44°18' E 008°30'0 0.0
2018-Apr-23 18:30N 44°18' E 008°30'0 0.0
2018-Apr-23 18:00N 44°18' E 008°30'0 0.0
2018-Apr-23 17:30N 44°18' E 008°30'0 0.0
2018-Apr-23 17:00N 44°18' E 008°30'0 0.0
2018-Apr-23 16:30N 44°18' E 008°30'0 0.0
2018-Apr-23 16:00N 44°18' E 008°30'0 0.0
2018-Apr-23 15:30N 44°18' E 008°30'0 0.0
2018-Apr-23 15:00N 44°18' E 008°30'0 0.0
2018-Apr-23 14:30N 44°18' E 008°30'0 0.0
2018-Apr-23 14:00N 44°18' E 008°30'0 0.0
2018-Apr-23 13:30N 44°18' E 008°30'0 0.0
2018-Apr-23 13:00N 44°18' E 008°30'0 0.0
2018-Apr-23 12:30N 44°18' E 008°30'0 0.0
2018-Apr-23 12:00N 44°18' E 008°30'0 0.0
2018-Apr-23 11:30N 44°18' E 008°30'0 0.0
2018-Apr-23 11:00N 44°18' E 008°30'0 0.2
2018-Apr-23 10:30N 44°18' E 008°30'2 4.2
2018-Apr-23 10:00N 44°17' E 008°32'510.0
2018-Apr-23 09:30N 44°13' E 008°37'4 8.9
2018-Apr-23 09:00N 44°09' E 008°41'4 8.3
2018-Apr-23 08:30N 44°07' E 008°45'4 8.2
2018-Apr-23 08:00N 44°04' E 008°49'3 6.8
2018-Apr-23 07:30N 44°01' E 008°52'3 6.9
2018-Apr-23 07:00N 43°58' E 008°54'4 7.5
2018-Apr-23 06:30N 43°55' E 008°57'4 7.8
2018-Apr-23 06:00N 43°52' E 009°01'4 7.8
2018-Apr-23 05:30N 43°49' E 009°04'4 7.5
2018-Apr-23 05:00N 43°46' E 009°08'4 7.3
2018-Apr-23 04:30N 43°44' E 009°12'4 7.1
2018-Apr-23 04:00N 43°42' E 009°16'4 7.0
2018-Apr-23 03:30N 43°39' E 009°19'3 6.9
2018-Apr-23 03:00N 43°37' E 009°22'3 6.8
2018-Apr-23 02:30N 43°35' E 009°26'3 6.9
2018-Apr-23 02:00N 43°32' E 009°29'3 6.7
2018-Apr-23 01:30N 43°30' E 009°32'3 6.6
2018-Apr-23 01:00N 43°28' E 009°36'3 6.8
2018-Apr-23 00:30N 43°26' E 009°40'3 6.9
2018-Apr-23 00:00N 43°23' E 009°43'3 6.6
2018-Apr-22 23:30N 43°21' E 009°47'3 6.5
2018-Apr-22 23:00N 43°19' E 009°50'3 6.3
2018-Apr-22 22:30N 43°17' E 009°53'3 6.7
2018-Apr-22 22:00N 43°15' E 009°57'3 6.5
2018-Apr-22 21:30N 43°13' E 010°00'3 6.7
2018-Apr-22 21:00N 43°11' E 010°04'3 6.2
2018-Apr-22 20:30N 43°09' E 010°07'3 6.4
2018-Apr-22 20:00N 43°06' E 010°10'4 7.5
2018-Apr-22 19:30N 43°04' E 010°13'4 8.5
2018-Apr-22 19:00N 43°01' E 010°17'4 8.3
2018-Apr-22 18:30N 42°58' E 010°22'4 8.4
2018-Apr-22 18:00N 42°56' E 010°27'4 7.2
2018-Apr-22 17:24N 42°55' E 010°33'2 0.1
2018-Apr-21 09:08N 42°56' E 010°35'1 0.2
2018-Apr-21 06:23N 42°56' E 010°34'6 6.9
2018-Apr-21 05:31N 42°57' E 010°26'110.0
2018-Apr-21 05:26N 42°57' E 010°25'410.0
2018-Apr-21 05:00N 42°59' E 010°20'510.1
2018-Apr-21 04:30N 43°01' E 010°14'510.1
2018-Apr-21 04:00N 43°04' E 010°07'510.2
2018-Apr-21 03:30N 43°06' E 010°01'510.1
2018-Apr-21 03:00N 43°08' E 009°55'5 9.8
2018-Apr-21 02:30N 43°10' E 009°49'510.1
2018-Apr-21 02:00N 43°10' E 009°42'910.2
2018-Apr-21 01:10N 43°09' E 009°30'210.3
2018-Apr-21 01:00N 43°09' E 009°28'510.3
2018-Apr-21 00:30N 43°08' E 009°21'510.4
2018-Apr-21 00:00N 43°08' E 009°14'510.6
2018-Apr-20 23:30N 43°07' E 009°07'510.4
2018-Apr-20 23:00N 43°07' E 008°60'510.3
2018-Apr-20 22:30N 43°06' E 008°53'510.0
2018-Apr-20 22:00N 43°05' E 008°46'510.0
2018-Apr-20 21:30N 43°05' E 008°39'64 9.8
2018-Apr-20 15:01N 43°00' E 007°12'0 9.6
2018-Apr-20 14:59N 43°00' E 007°12'91 9.0
2018-Apr-20 04:53N 43°10' E 005°07'5 9.2
2018-Apr-20 04:20N 43°12' E 005°01'3 9.5
2018-Apr-20 04:00N 43°15' E 004°60'5 9.6
2018-Apr-20 03:30N 43°20' E 004°58'4 8.8
2018-Apr-20 03:00N 43°24' E 004°55'2 4.8
2018-Apr-20 02:30N 43°26' E 004°53'0 0.0
2018-Apr-20 02:00N 43°26' E 004°53'0 0.0
2018-Apr-20 01:30N 43°26' E 004°53'0 0.0
2018-Apr-20 00:51N 43°26' E 004°53'0 0.0
2018-Apr-20 00:30N 43°26' E 004°53'0 0.0
2018-Apr-19 23:57N 43°26' E 004°53'0 0.0
2018-Apr-19 23:27N 43°26' E 004°53'0 0.0
2018-Apr-19 23:00N 43°26' E 004°53'0 0.0
2018-Apr-19 22:24N 43°26' E 004°53'0 0.0
2018-Apr-19 22:00N 43°26' E 004°53'0 0.0
2018-Apr-19 21:30N 43°26' E 004°53'0 0.0
2018-Apr-19 21:00N 43°26' E 004°53'0 0.0
2018-Apr-19 20:24N 43°26' E 004°53'0 0.0
2018-Apr-19 20:00N 43°26' E 004°53'0 0.0
2018-Apr-19 19:27N 43°26' E 004°53'0 0.0
2018-Apr-19 18:51N 43°26' E 004°53'0 0.0
2018-Apr-19 18:27N 43°26' E 004°53'0 0.0
2018-Apr-19 17:51N 43°26' E 004°53'0 0.0
2018-Apr-19 17:21N 43°26' E 004°53'0 0.0
2018-Apr-19 16:57N 43°26' E 004°53'0 0.0
2018-Apr-19 16:27N 43°26' E 004°53'0 0.0
2018-Apr-19 16:00N 43°26' E 004°53'0 0.0
2018-Apr-19 15:27N 43°26' E 004°53'0 0.0
2018-Apr-19 14:57N 43°26' E 004°53'0 0.0
2018-Apr-19 14:30N 43°26' E 004°53'0 0.0
2018-Apr-19 14:00N 43°26' E 004°53'0 0.0
2018-Apr-19 13:24N 43°26' E 004°53'0 0.0
2018-Apr-19 13:00N 43°26' E 004°53'0 0.0
2018-Apr-19 12:30N 43°26' E 004°53'0 0.0
2018-Apr-19 12:00N 43°26' E 004°53'0 0.0
2018-Apr-19 11:30N 43°26' E 004°53'0 0.0
2018-Apr-19 11:00N 43°26' E 004°53'0 0.0
2018-Apr-19 10:30N 43°26' E 004°53'0 0.0
2018-Apr-19 10:00N 43°26' E 004°53'2 3.7
2018-Apr-19 09:31N 43°24' E 004°55'0 0.0
2018-Apr-19 08:55N 43°24' E 004°55'0 0.0
2018-Apr-19 08:28N 43°24' E 004°55'0 0.1
2018-Apr-19 07:55N 43°24' E 004°55'0 0.1
2018-Apr-19 07:25N 43°24' E 004°55'0 0.1
2018-Apr-19 06:58N 43°24' E 004°55'0 0.0
2018-Apr-19 06:28N 43°24' E 004°55'0 0.1
2018-Apr-19 05:58N 43°24' E 004°55'0 0.0
2018-Apr-19 05:28N 43°24' E 004°55'0 0.0
2018-Apr-19 04:58N 43°24' E 004°55'0 0.0
2018-Apr-19 04:28N 43°24' E 004°55'0 0.0
2018-Apr-19 03:58N 43°24' E 004°55'0 0.0
2018-Apr-19 03:28N 43°24' E 004°55'0 0.0
2018-Apr-19 02:49N 43°24' E 004°55'0 0.1
2018-Apr-19 02:22N 43°24' E 004°55'0 0.1
2018-Apr-19 01:58N 43°24' E 004°55'0 0.0
2018-Apr-19 01:28N 43°24' E 004°55'0 0.0
2018-Apr-19 00:55N 43°24' E 004°55'0 0.0
2018-Apr-19 00:28N 43°24' E 004°55'0 0.0
2018-Apr-18 23:58N 43°24' E 004°55'0 0.0
2018-Apr-18 23:28N 43°24' E 004°55'0 0.0
2018-Apr-18 22:58N 43°24' E 004°55'0 0.0
2018-Apr-18 22:28N 43°24' E 004°55'0 0.0
2018-Apr-18 21:58N 43°24' E 004°55'0 0.1
2018-Apr-18 21:19N 43°24' E 004°55'0 0.1
2018-Apr-18 20:58N 43°24' E 004°55'1 1.4
2018-Apr-18 20:30N 43°24' E 004°55'5 9.8
2018-Apr-18 20:00N 43°20' E 004°59'4 9.0
2018-Apr-18 19:30N 43°15' E 005°01'5 9.8
2018-Apr-18 18:58N 43°10' E 005°00'14410.0
2018-Apr-18 04:31N 41°28' E 002°42'210.2
2018-Apr-18 04:21N 41°27' E 002°40'310.2
2018-Apr-18 04:00N 41°25' E 002°36'510.1
2018-Apr-18 03:30N 41°22' E 002°31'510.0
2018-Apr-18 03:00N 41°18' E 002°26'5 9.8
2018-Apr-18 02:30N 41°15' E 002°21'5 9.8
2018-Apr-18 02:00N 41°12' E 002°16'5 9.7
2018-Apr-18 01:30N 41°09' E 002°11'7 9.9
2018-Apr-18 00:51N 41°05' E 002°05'3 9.6
2018-Apr-18 00:30N 41°03' E 002°01'5 9.5
2018-Apr-18 00:00N 40°60' E 001°56'5 9.9
2018-Apr-17 23:27N 40°56' E 001°51'510.1
2018-Apr-17 22:59N 40°53' E 001°46'5 9.9
2018-Apr-17 22:29N 40°50' E 001°41'14 0.4
2018-Apr-16 15:19N 41°02' E 001°49'310.4
2018-Apr-16 14:59N 41°04' E 001°52'510.6
2018-Apr-16 14:31N 41°07' E 001°58'510.5
2018-Apr-16 14:00N 41°10' E 002°04'510.3
2018-Apr-16 13:30N 41°13' E 002°10'5 9.5
2018-Apr-16 13:00N 41°15' E 002°15'510.3
2018-Apr-16 12:30N 41°18' E 002°21'510.4
2018-Apr-16 12:00N 41°21' E 002°26'610.5
2018-Apr-16 11:28N 41°25' E 002°32'138 8.8
2018-Apr-15 19:49N 43°12' E 004°30'3 9.4
2018-Apr-15 19:30N 43°13' E 004°34'5 9.5
2018-Apr-15 19:00N 43°14' E 004°40'5 9.7
2018-Apr-15 18:30N 43°15' E 004°46'5 9.3
2018-Apr-15 17:58N 43°17' E 004°53'4 9.3
2018-Apr-15 17:30N 43°19' E 004°58'4 8.8
2018-Apr-15 17:00N 43°23' E 004°56'3 6.3
2018-Apr-15 16:30N 43°26' E 004°54'0 0.1
2018-Apr-15 15:59N 43°26' E 004°54'0 0.0
2018-Apr-15 15:30N 43°26' E 004°54'0 0.0
2018-Apr-15 15:00N 43°26' E 004°54'0 0.0
2018-Apr-15 14:29N 43°26' E 004°54'0 0.0
2018-Apr-15 13:59N 43°26' E 004°54'0 0.0
2018-Apr-15 13:29N 43°26' E 004°54'0 0.0
2018-Apr-15 13:00N 43°26' E 004°54'0 0.0
2018-Apr-15 12:27N 43°26' E 004°54'0 0.0
2018-Apr-15 12:00N 43°26' E 004°54'0 0.0
2018-Apr-15 11:30N 43°26' E 004°54'0 0.0
2018-Apr-15 11:00N 43°26' E 004°54'2 4.0
2018-Apr-15 10:30N 43°24' E 004°55'2 3.9
2018-Apr-15 09:55N 43°24' E 004°58'0 0.1
2018-Apr-15 09:28N 43°24' E 004°58'0 0.0
2018-Apr-15 08:58N 43°24' E 004°58'0 0.0
2018-Apr-15 08:28N 43°24' E 004°58'0 0.0
2018-Apr-15 07:58N 43°24' E 004°58'0 0.1
2018-Apr-15 07:28N 43°24' E 004°58'0 0.0
2018-Apr-15 06:55N 43°24' E 004°58'0 0.1
2018-Apr-15 06:25N 43°24' E 004°58'0 0.0
2018-Apr-15 05:58N 43°24' E 004°58'0 0.0
2018-Apr-15 05:28N 43°24' E 004°58'0 0.0
2018-Apr-15 04:55N 43°24' E 004°58'0 0.0
2018-Apr-15 04:28N 43°24' E 004°58'0 0.0
2018-Apr-15 03:52N 43°24' E 004°58'0 0.0
2018-Apr-15 03:28N 43°24' E 004°58'0 0.0
2018-Apr-15 02:58N 43°24' E 004°58'0 0.0
2018-Apr-15 02:25N 43°24' E 004°58'0 0.0
2018-Apr-15 01:58N 43°24' E 004°58'0 0.0
2018-Apr-15 01:28N 43°24' E 004°58'0 0.0
2018-Apr-15 00:58N 43°24' E 004°58'0 0.0
2018-Apr-15 00:28N 43°24' E 004°58'0 0.0
2018-Apr-14 23:58N 43°24' E 004°58'0 0.0
2018-Apr-14 23:28N 43°24' E 004°58'0 0.0
2018-Apr-14 22:58N 43°24' E 004°58'0 0.0
2018-Apr-14 22:28N 43°24' E 004°58'0 0.0
2018-Apr-14 21:55N 43°24' E 004°58'0 0.0
2018-Apr-14 21:28N 43°24' E 004°58'0 0.0
2018-Apr-14 20:58N 43°24' E 004°58'0 0.0
2018-Apr-14 20:28N 43°24' E 004°58'0 0.0
2018-Apr-14 19:55N 43°24' E 004°58'  
Track history (hours):
 
Tides and Currents Weather Stations Pressure Air Temp Water Temp Dewpoint Dewpoint Depression Visibility Wind Speed Wind Dir Waves Ship Positions

Bosporus

Last reported at 2018-Apr-24 19:39 UTC. Time now 2018-Apr-25 02:47 UTC.
Position N 43°16' E 007°01'.

Length 100 m; draft 4 m.

Type: Cargo ship. MMSI: 304010802.

Date/timePositionNaut miles runAvg speedWind from/ knotsBaromVisibWave heightAir tempDewpointWater temp
2018-Apr-24 19:39N 43°16' E 007°01'1 9.7
2018-Apr-24 19:31N 43°16' E 007°03'510.2
2018-Apr-24 19:00N 43°19' E 007°09'510.6
2018-Apr-24 18:30N 43°22' E 007°14'5011.1
2018-Apr-24 13:57N 43°53' E 008°10'511.0
2018-Apr-24 13:27N 43°57' E 008°15'610.9
2018-Apr-24 12:53N 44°02' E 008°20'511.2
2018-Apr-24 12:29N 44°06' E 008°24'511.4
2018-Apr-24 12:01N 44°10' E 008°28'510.7
2018-Apr-24 11:31N 44°15' E 008°31'4 8.0
2018-Apr-24 11:00N 44°19' E 008°30'0 0.1
2018-Apr-24 10:29N 44°19' E 008°30'0 0.0
2018-Apr-24 09:59N 44°19' E 008°30'0 0.0
2018-Apr-24 09:29N 44°19' E 008°30'0 0.0
2018-Apr-24 08:59N 44°19' E 008°30'0 0.0
2018-Apr-24 08:29N 44°19' E 008°30'0 0.0
2018-Apr-24 07:59N 44°19' E 008°30'0 0.0
2018-Apr-24 07:29N 44°19' E 008°30'0 0.0
2018-Apr-24 06:59N 44°19' E 008°30'0 0.0
2018-Apr-24 06:29N 44°19' E 008°30'0 0.0
2018-Apr-24 05:59N 44°19' E 008°30'0 0.0
2018-Apr-24 05:29N 44°19' E 008°30'0 0.0
2018-Apr-24 04:59N 44°19' E 008°30'0 0.0
2018-Apr-24 04:29N 44°19' E 008°30'0 0.8
2018-Apr-24 04:00N 44°19' E 008°30'1 1.7
2018-Apr-24 03:30N 44°18' E 008°30'0 0.1
2018-Apr-24 03:00N 44°18' E 008°30'0 0.0
2018-Apr-24 02:30N 44°18' E 008°30'0 0.0
2018-Apr-24 02:00N 44°18' E 008°30'0 0.0
2018-Apr-24 01:30N 44°18' E 008°30'0 0.0
2018-Apr-24 01:00N 44°18' E 008°30'0 0.0
2018-Apr-24 00:30N 44°18' E 008°30'0 0.0
2018-Apr-24 00:00N 44°18' E 008°30'0 0.0
2018-Apr-23 23:30N 44°18' E 008°30'0 0.0
2018-Apr-23 23:00N 44°18' E 008°30'0 0.0
2018-Apr-23 22:27N 44°18' E 008°30'0 0.0
2018-Apr-23 22:00N 44°18' E 008°30'0 0.0
2018-Apr-23 21:30N 44°18' E 008°30'0 0.0
2018-Apr-23 21:00N 44°18' E 008°30'0 0.0
2018-Apr-23 20:30N 44°18' E 008°30'0 0.0
2018-Apr-23 20:00N 44°18' E 008°30'0 0.0
2018-Apr-23 19:30N 44°18' E 008°30'0 0.0
2018-Apr-23 19:00N 44°18' E 008°30'0 0.0
2018-Apr-23 18:30N 44°18' E 008°30'0 0.0
2018-Apr-23 18:00N 44°18' E 008°30'0 0.0
2018-Apr-23 17:30N 44°18' E 008°30'0 0.0
2018-Apr-23 17:00N 44°18' E 008°30'0 0.0
2018-Apr-23 16:30N 44°18' E 008°30'0 0.0
2018-Apr-23 16:00N 44°18' E 008°30'0 0.0
2018-Apr-23 15:30N 44°18' E 008°30'0 0.0
2018-Apr-23 15:00N 44°18' E 008°30'0 0.0
2018-Apr-23 14:30N 44°18' E 008°30'0 0.0
2018-Apr-23 14:00N 44°18' E 008°30'0 0.0
2018-Apr-23 13:30N 44°18' E 008°30'0 0.0
2018-Apr-23 13:00N 44°18' E 008°30'0 0.0
2018-Apr-23 12:30N 44°18' E 008°30'0 0.0
2018-Apr-23 12:00N 44°18' E 008°30'0 0.0
2018-Apr-23 11:30N 44°18' E 008°30'0 0.0
2018-Apr-23 11:00N 44°18' E 008°30'0 0.2
2018-Apr-23 10:30N 44°18' E 008°30'2 4.2
2018-Apr-23 10:00N 44°17' E 008°32'510.0
2018-Apr-23 09:30N 44°13' E 008°37'4 8.9
2018-Apr-23 09:00N 44°09' E 008°41'4 8.3
2018-Apr-23 08:30N 44°07' E 008°45'4 8.2
2018-Apr-23 08:00N 44°04' E 008°49'3 6.8
2018-Apr-23 07:30N 44°01' E 008°52'3 6.9
2018-Apr-23 07:00N 43°58' E 008°54'4 7.5
2018-Apr-23 06:30N 43°55' E 008°57'4 7.8
2018-Apr-23 06:00N 43°52' E 009°01'4 7.8
2018-Apr-23 05:30N 43°49' E 009°04'4 7.5
2018-Apr-23 05:00N 43°46' E 009°08'4 7.3
2018-Apr-23 04:30N 43°44' E 009°12'4 7.1
2018-Apr-23 04:00N 43°42' E 009°16'4 7.0
2018-Apr-23 03:30N 43°39' E 009°19'3 6.9
2018-Apr-23 03:00N 43°37' E 009°22'3 6.8
2018-Apr-23 02:30N 43°35' E 009°26'3 6.9
2018-Apr-23 02:00N 43°32' E 009°29'3 6.7
2018-Apr-23 01:30N 43°30' E 009°32'3 6.6
2018-Apr-23 01:00N 43°28' E 009°36'3 6.8
2018-Apr-23 00:30N 43°26' E 009°40'3 6.9
2018-Apr-23 00:00N 43°23' E 009°43'3 6.6
2018-Apr-22 23:30N 43°21' E 009°47'3 6.5
2018-Apr-22 23:00N 43°19' E 009°50'3 6.3
2018-Apr-22 22:30N 43°17' E 009°53'3 6.7
2018-Apr-22 22:00N 43°15' E 009°57'3 6.5
2018-Apr-22 21:30N 43°13' E 010°00'3 6.7
2018-Apr-22 21:00N 43°11' E 010°04'3 6.2
2018-Apr-22 20:30N 43°09' E 010°07'3 6.4
2018-Apr-22 20:00N 43°06' E 010°10'4 7.5
2018-Apr-22 19:30N 43°04' E 010°13'4 8.5
2018-Apr-22 19:00N 43°01' E 010°17'4 8.3
2018-Apr-22 18:30N 42°58' E 010°22'4 8.4
2018-Apr-22 18:00N 42°56' E 010°27'4 7.2
2018-Apr-22 17:24N 42°55' E 010°33'2 0.1
2018-Apr-21 09:08N 42°56' E 010°35'1 0.2
2018-Apr-21 06:23N 42°56' E 010°34'6 6.9
2018-Apr-21 05:31N 42°57' E 010°26'110.0
2018-Apr-21 05:26N 42°57' E 010°25'410.0
2018-Apr-21 05:00N 42°59' E 010°20'510.1
2018-Apr-21 04:30N 43°01' E 010°14'510.1
2018-Apr-21 04:00N 43°04' E 010°07'510.2
2018-Apr-21 03:30N 43°06' E 010°01'510.1
2018-Apr-21 03:00N 43°08' E 009°55'5 9.8
2018-Apr-21 02:30N 43°10' E 009°49'510.1
2018-Apr-21 02:00N 43°10' E 009°42'910.2
2018-Apr-21 01:10N 43°09' E 009°30'210.3
2018-Apr-21 01:00N 43°09' E 009°28'510.3
2018-Apr-21 00:30N 43°08' E 009°21'510.4
2018-Apr-21 00:00N 43°08' E 009°14'510.6
2018-Apr-20 23:30N 43°07' E 009°07'510.4
2018-Apr-20 23:00N 43°07' E 008°60'510.3
2018-Apr-20 22:30N 43°06' E 008°53'510.0
2018-Apr-20 22:00N 43°05' E 008°46'510.0
2018-Apr-20 21:30N 43°05' E 008°39'64 9.8
2018-Apr-20 15:01N 43°00' E 007°12'0 9.6
2018-Apr-20 14:59N 43°00' E 007°12'91 9.0
2018-Apr-20 04:53N 43°10' E 005°07'5 9.2
2018-Apr-20 04:20N 43°12' E 005°01'3 9.5
2018-Apr-20 04:00N 43°15' E 004°60'5 9.6
2018-Apr-20 03:30N 43°20' E 004°58'4 8.8
2018-Apr-20 03:00N 43°24' E 004°55'2 4.8
2018-Apr-20 02:30N 43°26' E 004°53'0 0.0
2018-Apr-20 02:00N 43°26' E 004°53'0 0.0
2018-Apr-20 01:30N 43°26' E 004°53'0 0.0
2018-Apr-20 00:51N 43°26' E 004°53'0 0.0
2018-Apr-20 00:30N 43°26' E 004°53'0 0.0
2018-Apr-19 23:57N 43°26' E 004°53'0 0.0
2018-Apr-19 23:27N 43°26' E 004°53'0 0.0
2018-Apr-19 23:00N 43°26' E 004°53'0 0.0
2018-Apr-19 22:24N 43°26' E 004°53'0 0.0
2018-Apr-19 22:00N 43°26' E 004°53'0 0.0
2018-Apr-19 21:30N 43°26' E 004°53'0 0.0
2018-Apr-19 21:00N 43°26' E 004°53'0 0.0
2018-Apr-19 20:24N 43°26' E 004°53'0 0.0
2018-Apr-19 20:00N 43°26' E 004°53'0 0.0
2018-Apr-19 19:27N 43°26' E 004°53'0 0.0
2018-Apr-19 18:51N 43°26' E 004°53'0 0.0
2018-Apr-19 18:27N 43°26' E 004°53'0 0.0
2018-Apr-19 17:51N 43°26' E 004°53'0 0.0
2018-Apr-19 17:21N 43°26' E 004°53'0 0.0
2018-Apr-19 16:57N 43°26' E 004°53'0 0.0
2018-Apr-19 16:27N 43°26' E 004°53'0 0.0
2018-Apr-19 16:00N 43°26' E 004°53'0 0.0
2018-Apr-19 15:27N 43°26' E 004°53'0 0.0
2018-Apr-19 14:57N 43°26' E 004°53'0 0.0
2018-Apr-19 14:30N 43°26' E 004°53'0 0.0
2018-Apr-19 14:00N 43°26' E 004°53'0 0.0
2018-Apr-19 13:24N 43°26' E 004°53'0 0.0
2018-Apr-19 13:00N 43°26' E 004°53'0 0.0
2018-Apr-19 12:30N 43°26' E 004°53'0 0.0
2018-Apr-19 12:00N 43°26' E 004°53'0 0.0
2018-Apr-19 11:30N 43°26' E 004°53'0 0.0
2018-Apr-19 11:00N 43°26' E 004°53'0 0.0
2018-Apr-19 10:30N 43°26' E 004°53'0 0.0
2018-Apr-19 10:00N 43°26' E 004°53'2 3.7
2018-Apr-19 09:31N 43°24' E 004°55'0 0.0
2018-Apr-19 08:55N 43°24' E 004°55'0 0.0
2018-Apr-19 08:28N 43°24' E 004°55'0 0.1
2018-Apr-19 07:55N 43°24' E 004°55'0 0.1
2018-Apr-19 07:25N 43°24' E 004°55'0 0.1
2018-Apr-19 06:58N 43°24' E 004°55'0 0.0
2018-Apr-19 06:28N 43°24' E 004°55'0 0.1
2018-Apr-19 05:58N 43°24' E 004°55'0 0.0
2018-Apr-19 05:28N 43°24' E 004°55'0 0.0
2018-Apr-19 04:58N 43°24' E 004°55'0 0.0
2018-Apr-19 04:28N 43°24' E 004°55'0 0.0
2018-Apr-19 03:58N 43°24' E 004°55'0 0.0
2018-Apr-19 03:28N 43°24' E 004°55'0 0.0
2018-Apr-19 02:49N 43°24' E 004°55'0 0.1
2018-Apr-19 02:22N 43°24' E 004°55'0 0.1
2018-Apr-19 01:58N 43°24' E 004°55'0 0.0
2018-Apr-19 01:28N 43°24' E 004°55'0 0.0
2018-Apr-19 00:55N 43°24' E 004°55'0 0.0
2018-Apr-19 00:28N 43°24' E 004°55'0 0.0
2018-Apr-18 23:58N 43°24' E 004°55'0 0.0
2018-Apr-18 23:28N 43°24' E 004°55'0 0.0
2018-Apr-18 22:58N 43°24' E 004°55'0 0.0
2018-Apr-18 22:28N 43°24' E 004°55'0 0.0
2018-Apr-18 21:58N 43°24' E 004°55'0 0.1
2018-Apr-18 21:19N 43°24' E 004°55'0 0.1
2018-Apr-18 20:58N 43°24' E 004°55'1 1.4
2018-Apr-18 20:30N 43°24' E 004°55'5 9.8
2018-Apr-18 20:00N 43°20' E 004°59'4 9.0
2018-Apr-18 19:30N 43°15' E 005°01'5 9.8
2018-Apr-18 18:58N 43°10' E 005°00'14410.0
2018-Apr-18 04:31N 41°28' E 002°42'210.2
2018-Apr-18 04:21N 41°27' E 002°40'310.2
2018-Apr-18 04:00N 41°25' E 002°36'510.1
2018-Apr-18 03:30N 41°22' E 002°31'510.0
2018-Apr-18 03:00N 41°18' E 002°26'5 9.8
2018-Apr-18 02:30N 41°15' E 002°21'5 9.8
2018-Apr-18 02:00N 41°12' E 002°16'5 9.7
2018-Apr-18 01:30N 41°09' E 002°11'7 9.9
2018-Apr-18 00:51N 41°05' E 002°05'3 9.6
2018-Apr-18 00:30N 41°03' E 002°01'5 9.5
2018-Apr-18 00:00N 40°60' E 001°56'5 9.9
2018-Apr-17 23:27N 40°56' E 001°51'510.1
2018-Apr-17 22:59N 40°53' E 001°46'5 9.9
2018-Apr-17 22:29N 40°50' E 001°41'14 0.4
2018-Apr-16 15:19N 41°02' E 001°49'310.4
2018-Apr-16 14:59N 41°04' E 001°52'510.6
2018-Apr-16 14:31N 41°07' E 001°58'510.5
2018-Apr-16 14:00N 41°10' E 002°04'510.3
2018-Apr-16 13:30N 41°13' E 002°10'5 9.5
2018-Apr-16 13:00N 41°15' E 002°15'510.3
2018-Apr-16 12:30N 41°18' E 002°21'510.4
2018-Apr-16 12:00N 41°21' E 002°26'610.5
2018-Apr-16 11:28N 41°25' E 002°32'138 8.8
2018-Apr-15 19:49N 43°12' E 004°30'3 9.4
2018-Apr-15 19:30N 43°13' E 004°34'5 9.5
2018-Apr-15 19:00N 43°14' E 004°40'5 9.7
2018-Apr-15 18:30N 43°15' E 004°46'5 9.3
2018-Apr-15 17:58N 43°17' E 004°53'4 9.3
2018-Apr-15 17:30N 43°19' E 004°58'4 8.8
2018-Apr-15 17:00N 43°23' E 004°56'3 6.3
2018-Apr-15 16:30N 43°26' E 004°54'0 0.1
2018-Apr-15 15:59N 43°26' E 004°54'0 0.0
2018-Apr-15 15:30N 43°26' E 004°54'0 0.0
2018-Apr-15 15:00N 43°26' E 004°54'0 0.0
2018-Apr-15 14:29N 43°26' E 004°54'0 0.0
2018-Apr-15 13:59N 43°26' E 004°54'0 0.0
2018-Apr-15 13:29N 43°26' E 004°54'0 0.0
2018-Apr-15 13:00N 43°26' E 004°54'0 0.0
2018-Apr-15 12:27N 43°26' E 004°54'0 0.0
2018-Apr-15 12:00N 43°26' E 004°54'0 0.0
2018-Apr-15 11:30N 43°26' E 004°54'0 0.0
2018-Apr-15 11:00N 43°26' E 004°54'2 4.0
2018-Apr-15 10:30N 43°24' E 004°55'2 3.9
2018-Apr-15 09:55N 43°24' E 004°58'0 0.1
2018-Apr-15 09:28N 43°24' E 004°58'0 0.0
2018-Apr-15 08:58N 43°24' E 004°58'0 0.0
2018-Apr-15 08:28N 43°24' E 004°58'0 0.0
2018-Apr-15 07:58N 43°24' E 004°58'0 0.1
2018-Apr-15 07:28N 43°24' E 004°58'0 0.0
2018-Apr-15 06:55N 43°24' E 004°58'0 0.1
2018-Apr-15 06:25N 43°24' E 004°58'0 0.0
2018-Apr-15 05:58N 43°24' E 004°58'0 0.0
2018-Apr-15 05:28N 43°24' E 004°58'0 0.0
2018-Apr-15 04:55N 43°24' E 004°58'0 0.0
2018-Apr-15 04:28N 43°24' E 004°58'0 0.0
2018-Apr-15 03:52N 43°24' E 004°58'0 0.0
2018-Apr-15 03:28N 43°24' E 004°58'0 0.0
2018-Apr-15 02:58N 43°24' E 004°58'0 0.0
2018-Apr-15 02:25N 43°24' E 004°58'0 0.0
2018-Apr-15 01:58N 43°24' E 004°58'0 0.0
2018-Apr-15 01:28N 43°24' E 004°58'0 0.0
2018-Apr-15 00:58N 43°24' E 004°58'0 0.0
2018-Apr-15 00:28N 43°24' E 004°58'0 0.0
2018-Apr-14 23:58N 43°24' E 004°58'0 0.0
2018-Apr-14 23:28N 43°24' E 004°58'0 0.0
2018-Apr-14 22:58N 43°24' E 004°58'0 0.0
2018-Apr-14 22:28N 43°24' E 004°58'0 0.0
2018-Apr-14 21:55N 43°24' E 004°58'0 0.0
2018-Apr-14 21:28N 43°24' E 004°58'0 0.0
2018-Apr-14 20:58N 43°24' E 004°58'0 0.0
2018-Apr-14 20:28N 43°24' E 004°58'0 0.0
2018-Apr-14 19:55N 43°24' E 004°58'  

Dump ship's entire track history